Airfield :
LOGIN :

Register | Disclaimer

   EN    FR    IT 

 










Legend :    VFR   Marginal VFR   IFR   Intensive IFR   Very Intensive IFR
Visi :
Ceiling :
>= 8 km
>= 3000ft
5 to 8 km
1000 to 3000 ft
1500m to 5 km
500 to 1000 ft
800 to 1500m
200 to 500 ft
< 800m
< 200 ft
Symbols :   Thunderstorms  Fog  Heavy snow  Heavy precipitations  Wind > 20 kt
SIGMETs :     Misc.  Thunderstorms  Icing  Turbulence  Mountain Waves  Volcanic Ashes







- Airport Elevation : 26 ft
- IATA code : KLX


LGKL - Kalamata AB

CURRENT METAR :
  • 240220Z AUTO 34011KT 270V360 //// -RA ////// 07/M00 Q1016 RE//

EXPIRED METARs :
  • 240150Z AUTO 31011G21KT 170V120 //// -RA ////// 07/M01 Q1016 RE//
  • 240120Z AUTO 32012KT 260V350 //// -RA ////// 07/M00 Q1016 RE//
  • 240050Z AUTO 32011G22KT 270V020 //// -RA ////// 08/M00 Q1015 RE//
  • 240020Z AUTO 30011KT 240V330 //// -RA ////// 06/00 Q1015 RE//
  • 232350Z AUTO 31013KT 260V350 //// -RA ////// 07/00 Q1015 RE//

TAF TAF LGKL
Valid from the 24 at 03:00 until the 24 at 12:00 UTC


240200Z 2403/2412 05015G25KT 9999 BKN020 BKN080
TEMPO 2403/2410 5000 RA
PROB30
TEMPO 2403/2409 3000 TSRA FEW008 FEW018CB BKN020 OVC080
TEMPO 2403/2412 05018G30KT
No reported NOTAMs for that airfield.
4 SIGMETs reported for the Athinai FIR (LGGG) :
 
Severe turbulence
LGGG SIGMET 17 VALID 232345/240345 LGAT
LGGG ATHINAI FIR SEV TURB FCST N OF LINE N3900 E02640 - N3550 E02320 - N3700 E01900 SFC/FL150 STNR NC=
Embedded thunderstorms
LGGG SIGMET 16 VALID 232313/240300 LGAT
LGGG ATHINAI FIR/UIR EMBD TS OBS S OF N3800 AND E OF E02615 STNR NC=
Embedded thunderstorms
LGGG SIGMET 15 VALID 232300/240300 LGAT
LGGG ATHINAI FIR/UIR EMBD TS OBS S OF LINE N3700 E01900 - N3650 E02300 - N3810 E02615 STNR NC=
Severe icing
LGGG SIGMET 1 VALID 240200/240600 LGAT
LGGG ATHINAI FIR/UIR SEV ICE FCST N OF LINE N3900 E02640 - N3640 E02220 - N3940 E02030 ABV SFC STNR NC=



MET'MAP, your aeronautical weather chart ! - Copyright ORBIFLY December 2007 - Disclaimer

ORBIFLY MET'MAP TEAM :

Programming & Development : Alexandra Zaïnal
Concept & Development : Baudouin d'Aumeries
Co-Development & Prog : Marc-Olivier Méhu
Technical & hardware support : Manuel Goepfert

Contact : metmap@orbifly.com




SOURCES & CREDITS :

   NOAA